Time;durP1;ratioP1;P1;durP2;ratioP2;P2;SDS_P1;SDS_P2;PMS_P1;PMS_P2;Temp;Humidity;BMP_temperature;BMP_pressure;BME280_temperature;BME280_humidity;BME280_pressure;Samples;Min_cycle;Max_cycle;Signal;HPM_P1;HPM_P2
2021/09/11 00:02:31;;;;;;;8.70;7.80;;;;;;;23.36;55.16;98034.63;8397857;28;20210;-65
2021/09/11 00:06:34;;;;;;;8.70;7.40;;;;;;;23.33;54.95;98029.66;8385431;28;20299;-65
2021/09/11 00:10:37;;;;;;;7.93;7.23;;;;;;;23.32;55.14;98034.09;8385308;28;20210;-64
2021/09/11 00:14:40;;;;;;;8.73;7.50;;;;;;;23.31;55.77;98027.16;8385164;28;20222;-64
2021/09/11 00:18:44;;;;;;;12.03;7.10;;;;;;;23.30;55.32;98040.50;8385037;28;20250;-65
2021/09/11 00:22:47;;;;;;;7.90;7.07;;;;;;;23.25;55.48;98032.16;8384902;28;20206;-65
2021/09/11 00:26:51;;;;;;;8.00;7.07;;;;;;;23.23;55.08;98025.25;8384784;28;20526;-65
2021/09/11 00:30:54;;;;;;;9.43;7.60;;;;;;;23.10;55.68;98021.28;8384790;28;20207;-65
2021/09/11 00:34:58;;;;;;;8.50;7.70;;;;;;;23.12;55.83;98022.78;8384495;28;20550;-65
2021/09/11 00:39:01;;;;;;;8.13;7.33;;;;;;;23.16;55.49;98026.81;8384460;28;20601;-65
2021/09/11 00:43:04;;;;;;;8.60;7.27;;;;;;;23.19;55.31;98028.34;8384278;28;20203;-66
2021/09/11 00:47:07;;;;;;;8.17;7.00;;;;;;;23.20;55.66;98022.88;8384171;28;20491;-65
2021/09/11 00:51:14;;;;;;;8.23;7.00;;;;;;;23.23;55.22;98030.53;8399516;28;20210;-65
2021/09/11 00:55:17;;;;;;;8.13;7.33;;;;;;;23.19;55.89;98030.97;8416994;28;20203;-65
2021/09/11 00:59:20;;;;;;;10.60;7.70;;;;;;;23.14;55.67;98036.69;8416895;28;20255;-65
2021/09/11 01:03:23;;;;;;;7.37;6.67;;;;;;;23.15;55.42;98038.34;8416911;28;20221;-64
2021/09/11 01:07:28;;;;;;;7.97;7.10;;;;;;;23.11;56.10;98036.97;8416671;28;20235;-64
2021/09/11 01:11:31;;;;;;;10.03;7.57;;;;;;;23.10;56.42;98045.06;8416626;28;20202;-65
2021/09/11 01:15:35;;;;;;;8.03;7.23;;;;;;;23.11;56.28;98030.84;8417011;28;20206;-65
2021/09/11 01:19:39;;;;;;;9.70;7.30;;;;;;;23.03;56.57;98028.94;8416361;28;20503;-65
2021/09/11 01:23:43;;;;;;;9.20;7.43;;;;;;;23.05;56.64;98027.00;8416338;28;20384;-65
2021/09/11 01:27:46;;;;;;;8.33;7.53;;;;;;;22.94;56.57;98025.34;8416220;28;20387;-65
2021/09/11 01:31:49;;;;;;;8.53;7.73;;;;;;;22.97;56.51;98030.31;8416287;28;20203;-65
2021/09/11 01:35:54;;;;;;;8.13;7.40;;;;;;;22.99;56.32;98036.28;8415902;28;20226;-65
2021/09/11 01:39:58;;;;;;;8.77;7.97;;;;;;;22.97;56.36;98034.78;8416150;28;20199;-65
2021/09/11 01:44:02;;;;;;;9.53;8.00;;;;;;;23.01;56.16;98029.06;8415947;28;20206;-67
2021/09/11 01:48:05;;;;;;;10.37;7.37;;;;;;;22.93;56.13;98033.41;8415769;28;20388;-65
2021/09/11 01:52:08;;;;;;;9.87;8.43;;;;;;;22.97;56.45;98030.31;8415583;28;20198;-66
2021/09/11 01:56:13;;;;;;;9.40;8.20;;;;;;;22.93;56.36;98034.22;8415591;28;20199;-65
2021/09/11 02:00:17;;;;;;;8.87;7.70;;;;;;;22.92;55.98;98032.56;8416017;28;20206;-65
2021/09/11 02:04:20;;;;;;;10.23;7.83;;;;;;;22.96;56.17;98035.75;8421960;28;20207;-66
2021/09/11 02:08:23;;;;;;;8.60;7.80;;;;;;;22.92;56.94;98035.19;8422609;28;20203;-65
2021/09/11 02:12:27;;;;;;;9.00;8.10;;;;;;;22.90;56.46;98028.41;8422609;28;20493;-65
2021/09/11 02:16:30;;;;;;;9.87;8.30;;;;;;;22.82;56.75;98027.31;8422230;28;20223;-65
2021/09/11 02:20:33;;;;;;;8.33;7.60;;;;;;;22.84;57.22;98027.16;8421817;28;20206;-65
2021/09/11 02:24:35;;;;;;;8.40;7.50;;;;;;;22.80;56.87;98024.00;8421660;28;20203;-65
2021/09/11 02:28:40;;;;;;;8.83;7.53;;;;;;;22.84;56.93;98029.81;8421723;28;20203;-65
2021/09/11 02:32:42;;;;;;;8.67;7.87;;;;;;;22.72;56.84;98033.63;8421379;28;20222;-65
2021/09/11 02:36:45;;;;;;;8.43;7.53;;;;;;;22.71;57.23;98032.75;8421264;28;20227;-65
2021/09/11 02:40:48;;;;;;;8.90;8.00;;;;;;;22.73;57.01;98033.47;8421301;28;20486;-65
2021/09/11 02:44:52;;;;;;;8.93;8.03;;;;;;;22.62;57.22;98031.81;8421179;28;20201;-65
2021/09/11 02:48:55;;;;;;;8.50;7.77;;;;;;;22.62;57.40;98047.66;8420946;28;20210;-65
2021/09/11 02:53:01;;;;;;;8.67;7.87;;;;;;;22.68;56.69;98046.25;8420758;28;20209;-65
2021/09/11 02:57:04;;;;;;;8.60;7.80;;;;;;;22.61;57.09;98045.16;8420967;28;20227;-65
2021/09/11 03:01:08;;;;;;;8.97;8.10;;;;;;;22.62;57.44;98047.66;8420662;28;20202;-65
2021/09/11 03:05:12;;;;;;;8.37;7.63;;;;;;;22.61;57.42;98043.34;8420690;28;20257;-65
2021/09/11 03:09:15;;;;;;;8.13;7.33;;;;;;;22.59;57.67;98039.19;8420435;28;20213;-65
2021/09/11 03:13:18;;;;;;;10.90;8.07;;;;;;;22.59;57.23;98041.84;8419969;28;20202;-65
2021/09/11 03:17:22;;;;;;;9.87;8.37;;;;;;;22.57;57.35;98047.25;8420402;28;20237;-64
2021/09/11 03:21:25;;;;;;;8.40;7.60;;;;;;;22.40;57.94;98047.97;8420230;28;20205;-65
2021/09/11 03:25:28;;;;;;;8.70;7.90;;;;;;;22.53;57.47;98052.97;8419950;28;20207;-65
2021/09/11 03:29:31;;;;;;;11.20;7.70;;;;;;;22.51;57.33;98055.75;8419884;28;20404;-65
2021/09/11 03:33:35;;;;;;;8.60;7.80;;;;;;;22.47;57.64;98048.25;8419565;28;20229;-65
2021/09/11 03:37:38;;;;;;;9.07;7.50;;;;;;;22.51;57.42;98057.56;8419702;28;20529;-65
2021/09/11 03:41:41;;;;;;;8.57;7.67;;;;;;;22.45;57.31;98053.66;8419384;28;20202;-65
2021/09/11 03:45:43;;;;;;;9.80;8.10;;;;;;;22.41;57.30;98061.03;8419151;28;20199;-65
2021/09/11 03:49:48;;;;;;;8.17;7.47;;;;;;;22.43;57.45;98059.09;8419102;28;20222;-65
2021/09/11 03:53:51;;;;;;;8.17;7.47;;;;;;;22.35;58.17;98058.97;8419126;28;20358;-65
2021/09/11 03:57:53;;;;;;;9.10;7.53;;;;;;;22.45;57.79;98056.31;8418810;28;20526;-65
2021/09/11 04:01:56;;;;;;;8.20;7.40;;;;;;;22.40;57.53;98059.34;8418959;28;20490;-65
2021/09/11 04:06:01;;;;;;;7.40;6.70;;;;;;;22.41;57.35;98058.41;8418702;28;20416;-65
2021/09/11 04:10:04;;;;;;;7.67;6.87;;;;;;;22.45;57.24;98056.31;8418469;28;20213;-65
2021/09/11 04:14:07;;;;;;;8.20;7.40;;;;;;;22.38;57.34;98068.38;8418380;28;20199;-65
2021/09/11 04:18:10;;;;;;;9.47;7.33;;;;;;;22.41;57.51;98062.84;8418184;28;20234;-65
2021/09/11 04:22:15;;;;;;;9.53;7.40;;;;;;;22.33;57.25;98055.63;8418113;28;20203;-65
2021/09/11 04:26:18;;;;;;;7.90;7.10;;;;;;;22.31;57.63;98057.56;8417346;28;20203;-65
2021/09/11 04:30:21;;;;;;;9.77;8.20;;;;;;;22.34;57.32;98059.09;8417785;28;20203;-64
2021/09/11 04:34:24;;;;;;;10.53;9.53;;;;;;;22.29;57.83;98061.31;8417658;28;20400;-65
2021/09/11 04:38:28;;;;;;;10.57;9.13;;;;;;;22.29;57.46;98064.78;8417504;28;20409;-65
2021/09/11 04:42:31;;;;;;;10.00;8.33;;;;;;;22.25;57.36;98071.31;8417494;28;20199;-65
2021/09/11 04:46:34;;;;;;;8.80;7.70;;;;;;;22.26;57.83;98065.06;8417370;28;20199;-65
2021/09/11 04:50:37;;;;;;;8.83;7.93;;;;;;;22.29;57.40;98080.59;8416968;28;20209;-65
2021/09/11 04:54:41;;;;;;;10.30;9.27;;;;;;;22.21;58.00;98080.44;8417253;28;20206;-65
2021/09/11 04:58:44;;;;;;;10.00;9.10;;;;;;;22.25;57.43;98076.56;8416996;28;20533;-65
2021/09/11 05:02:47;;;;;;;10.43;9.17;;;;;;;22.18;57.51;98084.19;8416754;28;20210;-65
2021/09/11 05:06:51;;;;;;;9.60;8.63;;;;;;;22.26;57.78;98078.25;8417035;28;20234;-65
2021/09/11 05:10:57;;;;;;;10.83;9.73;;;;;;;22.19;58.18;98079.75;8416738;28;20431;-65
2021/09/11 05:15:00;;;;;;;9.77;8.30;;;;;;;22.22;57.96;98082.94;8416721;28;20285;-65
2021/09/11 05:19:03;;;;;;;10.80;8.43;;;;;;;22.13;58.09;98082.94;8416378;28;20425;-65
2021/09/11 05:23:06;;;;;;;10.30;9.23;;;;;;;22.09;57.87;98092.09;8416386;28;20254;-65
2021/09/11 05:27:10;;;;;;;14.67;8.63;;;;;;;22.15;58.24;98091.56;8416432;28;20211;-65
2021/09/11 05:31:13;;;;;;;8.97;8.17;;;;;;;22.14;58.01;98097.78;8416342;28;20211;-65
2021/09/11 05:35:16;;;;;;;11.27;8.50;;;;;;;22.12;57.78;98097.91;8415997;28;20231;-65
2021/09/11 05:39:19;;;;;;;10.13;9.13;;;;;;;22.11;58.02;98096.25;8416080;28;20229;-65
2021/09/11 05:43:24;;;;;;;10.30;9.37;;;;;;;22.14;57.79;98096.00;8420542;28;20418;-65
2021/09/11 05:47:28;;;;;;;10.67;9.13;;;;;;;22.10;57.89;98099.84;8449497;28;20205;-64
2021/09/11 05:51:31;;;;;;;10.03;9.10;;;;;;;22.16;57.68;98101.13;8430081;28;20208;-65
2021/09/11 05:55:34;;;;;;;10.60;9.60;;;;;;;22.18;58.10;98107.06;8415850;28;20202;-65
2021/09/11 05:59:38;;;;;;;10.30;9.30;;;;;;;22.23;57.72;98105.69;8415613;28;20230;-65
2021/09/11 06:03:41;;;;;;;11.07;8.83;;;;;;;22.23;57.75;98107.50;8415765;28;20402;-65
2021/09/11 06:07:44;;;;;;;10.33;9.17;;;;;;;22.25;57.87;98108.22;8415330;28;20269;-65
2021/09/11 06:11:47;;;;;;;10.63;9.63;;;;;;;22.28;58.04;98096.59;8415228;28;20197;-65
2021/09/11 06:15:51;;;;;;;18.70;9.90;;;;;;;22.32;57.81;98104.06;8415476;28;20515;-65
2021/09/11 06:19:54;;;;;;;14.50;9.73;;;;;;;22.25;57.79;98106.41;8415413;28;20240;-65
2021/09/11 06:23:57;;;;;;;13.40;10.13;;;;;;;22.26;58.38;98104.63;8395827;28;20199;-65
2021/09/11 06:28:00;;;;;;;12.10;10.40;;;;;;;22.30;58.17;98111.31;8397326;28;20199;-65
2021/09/11 06:32:05;;;;;;;10.97;9.67;;;;;;;22.34;57.91;98111.84;8397831;28;20388;-65
2021/09/11 06:36:11;;;;;;;14.83;10.90;;;;;;;22.35;57.79;98119.63;8400490;28;20218;-65
2021/09/11 06:40:14;;;;;;;12.50;10.13;;;;;;;22.33;58.01;98113.66;8400048;28;20218;-65
2021/09/11 06:44:17;;;;;;;11.93;10.33;;;;;;;22.21;58.33;98115.56;8397672;28;20512;-65
2021/09/11 06:48:21;;;;;;;12.17;10.83;;;;;;;22.34;57.90;98120.59;8398600;28;20518;-65
2021/09/11 06:52:24;;;;;;;13.30;11.63;;;;;;;22.33;58.10;98124.22;8404482;28;20199;-65
2021/09/11 06:56:27;;;;;;;12.27;11.00;;;;;;;22.32;58.17;98124.34;8403402;28;20199;-65
2021/09/11 07:00:30;;;;;;;11.93;10.50;;;;;;;22.42;57.71;98126.00;8403442;28;20218;-65
2021/09/11 07:04:34;;;;;;;11.60;10.50;;;;;;;22.53;57.56;98126.84;8403160;28;20229;-65
2021/09/11 07:08:37;;;;;;;11.70;10.57;;;;;;;22.67;57.10;98129.03;8402997;28;20206;-65
2021/09/11 07:12:40;;;;;;;11.80;10.60;;;;;;;22.72;57.28;98133.91;8403771;28;20190;-65
2021/09/11 07:16:43;;;;;;;10.70;9.70;;;;;;;22.80;56.71;98128.75;8403384;28;20196;-65
2021/09/11 07:20:47;;;;;;;11.73;10.63;;;;;;;22.77;57.40;98129.88;8402422;28;20303;-65
2021/09/11 07:24:50;;;;;;;9.87;8.87;;;;;;;22.93;56.86;98129.28;8402455;28;20195;-65
2021/09/11 07:28:53;;;;;;;11.03;8.40;;;;;;;22.98;56.90;98136.78;8402337;28;20199;-65
2021/09/11 07:32:55;;;;;;;8.83;7.93;;;;;;;23.11;56.73;98134.69;8402319;28;20220;-65
2021/09/11 07:37:00;;;;;;;9.53;8.63;;;;;;;23.28;55.47;98138.38;8402092;28;20191;-65
2021/09/11 07:41:03;;;;;;;10.03;9.03;;;;;;;23.57;54.61;98145.38;8401993;28;20218;-65
2021/09/11 07:45:13;;;;;;;8.23;7.47;;;;;;;23.94;54.35;98149.81;8416399;28;20195;-65
2021/09/11 07:49:15;;;;;;;8.50;7.60;;;;;;;23.86;54.92;98153.22;8393505;28;20211;-62
2021/09/11 07:53:20;;;;;;;8.43;6.87;;;;;;;23.79;54.98;98158.25;8414466;28;20391;-62
2021/09/11 07:57:22;;;;;;;9.03;7.07;;;;;;;23.87;55.28;98154.03;8394422;28;20400;-62
2021/09/11 08:01:25;;;;;;;7.47;6.73;;;;;;;23.85;55.32;98158.66;8384589;28;20234;-62
2021/09/11 08:05:30;;;;;;;8.53;7.07;;;;;;;23.81;54.82;98158.94;8385792;28;20247;-62
2021/09/11 08:09:34;;;;;;;10.17;7.47;;;;;;;23.84;55.10;98159.59;8398592;28;20224;-62
2021/09/11 08:13:37;;;;;;;16.53;8.10;;;;;;;23.80;55.09;98161.75;8395807;28;20196;-62
2021/09/11 08:17:42;;;;;;;12.07;7.10;;;;;;;23.80;55.28;98162.56;8385337;28;20506;-65
2021/09/11 08:21:44;;;;;;;7.70;6.93;;;;;;;23.73;55.06;98166.72;8385013;28;20246;-65
2021/09/11 08:25:49;;;;;;;10.63;6.90;;;;;;;23.78;55.13;98171.59;8385124;28;20201;-65
2021/09/11 08:29:52;;;;;;;9.73;6.83;;;;;;;23.87;54.87;98164.63;8385031;28;20204;-65
2021/09/11 08:33:55;;;;;;;9.10;6.23;;;;;;;23.90;54.96;98173.09;8384554;28;20230;-65
2021/09/11 08:37:58;;;;;;;10.20;6.23;;;;;;;23.72;55.52;98164.22;8384554;28;20271;-65
2021/09/11 08:42:02;;;;;;;15.27;7.17;;;;;;;23.57;55.65;98161.22;8384517;28;20236;-65
2021/09/11 08:46:05;;;;;;;17.30;7.60;;;;;;;23.73;55.40;98160.63;8384251;28;20220;-65
2021/09/11 08:50:10;;;;;;;11.40;7.07;;;;;;;23.80;55.12;98167.03;8391387;28;20214;-65
2021/09/11 08:54:14;;;;;;;18.30;8.30;;;;;;;23.64;55.36;98169.44;8417064;28;20203;-65
2021/09/11 08:58:21;;;;;;;10.77;7.53;;;;;;;23.76;54.91;98171.75;8416630;28;20399;-65
2021/09/11 09:02:25;;;;;;;9.60;7.37;;;;;;;23.86;54.72;98170.91;8416775;28;20545;-66
2021/09/11 09:06:30;;;;;;;7.87;7.17;;;;;;;23.71;55.63;98167.88;8416409;28;20229;-65
2021/09/11 09:10:33;;;;;;;8.77;7.17;;;;;;;23.74;55.21;98172.84;8416122;28;20203;-65
2021/09/11 09:14:37;;;;;;;8.67;7.80;;;;;;;23.62;55.55;98170.38;8416475;28;20302;-65
2021/09/11 09:18:40;;;;;;;8.23;6.97;;;;;;;23.74;54.82;98165.78;8416388;28;20521;-65
2021/09/11 09:22:43;;;;;;;8.37;7.47;;;;;;;23.62;55.29;98162.47;8401320;28;20192;-65
2021/09/11 09:26:50;;;;;;;7.30;6.60;;;;;;;23.67;54.84;98154.09;8398638;28;20500;-65
2021/09/11 09:30:55;;;;;;;8.03;6.93;;;;;;;23.60;55.56;98169.72;8404006;28;20207;-65
2021/09/11 09:34:58;;;;;;;8.00;7.17;;;;;;;23.56;56.38;98178.91;8400559;28;20220;-66
2021/09/11 09:39:01;;;;;;;8.97;7.03;;;;;;;23.55;56.99;98168.47;8399104;28;20377;-65
2021/09/11 09:43:05;;;;;;;9.00;8.20;;;;;;;23.32;58.81;98168.84;8397475;28;20204;-65
2021/09/11 09:47:12;;;;;;;8.50;6.80;;;;;;;23.36;57.77;98172.88;8400536;28;20199;-65
2021/09/11 09:51:16;;;;;;;9.10;8.10;;;;;;;23.21;58.66;98177.78;8397481;28;20199;-65
2021/09/11 09:55:21;;;;;;;8.93;6.87;;;;;;;23.40;58.13;98176.88;8396523;28;20237;-65
2021/09/11 09:59:25;;;;;;;9.07;8.23;;;;;;;23.29;59.24;98171.78;8398767;28;20227;-67
2021/09/11 10:03:29;;;;;;;8.90;8.00;;;;;;;23.48;58.36;98164.78;8394643;28;20195;-65
2021/09/11 10:07:32;;;;;;;10.17;8.07;;;;;;;23.60;57.91;98167.06;8397889;28;20426;-65
2021/09/11 10:11:40;;;;;;;9.87;8.50;;;;;;;23.57;58.30;98171.81;8398249;28;20197;-65
2021/09/11 10:15:57;;;;;;;10.43;9.27;;;;;;;23.39;58.35;98169.94;8398063;28;20206;-65
2021/09/11 10:20:02;;;;;;;10.40;8.93;;;;;;;23.39;58.45;98169.09;8395374;28;20259;-65
2021/09/11 10:24:31;;;;;;;10.67;9.67;;;;;;;23.41;57.37;98162.69;8386141;28;20487;-65
2021/09/11 10:28:36;;;;;;;19.47;12.17;;;;;;;23.38;58.15;98167.41;8388883;28;20499;-65
2021/09/11 10:32:41;;;;;;;13.33;12.13;;;;;;;23.22;58.20;98163.56;8388633;28;20220;-65
2021/09/11 10:36:48;;;;;;;13.67;12.17;;;;;;;23.47;57.87;98163.91;8388446;28;20200;-65
2021/09/11 10:40:51;;;;;;;14.77;13.20;;;;;;;23.37;57.40;98163.13;8388186;28;20231;-65
2021/09/11 10:45:03;;;;;;;16.80;12.93;;;;;;;23.45;57.32;98163.22;8388421;28;20200;-65
2021/09/11 10:49:28;;;;;;;13.13;11.83;;;;;;;23.67;57.26;98150.66;8388206;28;20219;-65
2021/09/11 10:53:36;;;;;;;13.07;11.87;;;;;;;23.89;56.41;98154.72;8387806;28;20203;-65
2021/09/11 10:57:39;;;;;;;15.10;11.93;;;;;;;23.91;56.41;98153.59;8387867;28;20200;-64
2021/09/11 11:02:02;;;;;;;21.23;12.23;;;;;;;23.99;55.84;98152.88;8387614;28;20235;-64
2021/09/11 11:06:07;;;;;;;11.53;10.43;;;;;;;24.05;56.21;98156.72;8387825;28;20228;-65
2021/09/11 11:10:13;;;;;;;12.67;10.97;;;;;;;23.96;56.19;98151.31;8411012;28;20205;-65
2021/09/11 11:14:17;;;;;;;10.90;9.80;;;;;;;24.12;55.69;98152.50;8420787;28;20207;-65
2021/09/11 11:18:20;;;;;;;11.93;10.37;;;;;;;24.11;55.37;98142.91;8420177;28;20211;-65
2021/09/11 11:22:28;;;;;;;13.50;12.10;;;;;;;24.27;54.73;98143.03;8420131;28;20230;-65
2021/09/11 11:26:33;;;;;;;12.90;11.17;;;;;;;24.24;54.69;98139.88;8419962;28;20199;-66
2021/09/11 11:30:36;;;;;;;11.03;10.03;;;;;;;24.35;54.08;98143.16;8420132;28;20207;-66
2021/09/11 11:34:40;;;;;;;11.63;10.53;;;;;;;24.37;53.77;98140.34;8419565;28;20219;-66
2021/09/11 11:38:42;;;;;;;10.50;9.27;;;;;;;24.37;53.44;98138.53;8419558;28;20206;-66
2021/09/11 11:42:47;;;;;;;9.80;8.90;;;;;;;24.24;53.29;98139.88;8419536;28;20235;-66
2021/09/11 11:46:54;;;;;;;10.80;9.70;;;;;;;24.28;54.04;98144.72;8419677;28;20210;-63
2021/09/11 11:50:56;;;;;;;33.37;10.07;;;;;;;24.40;54.67;98135.56;8419139;28;20211;-62
2021/09/11 11:55:07;;;;;;;13.43;9.57;;;;;;;24.11;54.61;98132.31;8419208;28;20206;-62
2021/09/11 11:59:12;;;;;;;16.80;8.67;;;;;;;23.93;56.41;98127.84;8418941;28;20195;-59
2021/09/11 12:03:40;;;;;;;11.30;10.20;;;;;;;23.66;57.13;98119.88;8418752;28;20224;-59
2021/09/11 12:07:53;;;;;;;10.47;9.47;;;;;;;23.80;56.51;98117.63;8418702;28;20428;-60
2021/09/11 12:12:03;;;;;;;10.83;8.27;;;;;;;24.09;56.05;98108.66;8418490;28;20207;-60
2021/09/11 12:16:08;;;;;;;11.37;8.90;;;;;;;24.05;55.70;98099.38;8418707;28;20200;-60
2021/09/11 12:20:15;;;;;;;11.07;8.60;;;;;;;23.88;57.20;98100.19;8418208;28;20436;-60
2021/09/11 12:24:20;;;;;;;8.87;8.07;;;;;;;23.89;58.35;98101.81;8418369;28;20222;-59
2021/09/11 12:28:48;;;;;;;10.07;7.23;;;;;;;24.59;55.60;98091.41;8418126;28;20206;-59
2021/09/11 12:32:53;;;;;;;7.27;6.60;;;;;;;25.71;52.54;98081.78;8417901;28;20272;-60
2021/09/11 12:37:02;;;;;;;8.93;6.20;;;;;;;26.39;51.34;98080.75;8417773;28;20199;-59
2021/09/11 12:41:05;;;;;;;6.27;5.50;;;;;;;26.74;48.93;98068.13;8417904;28;20224;-60
2021/09/11 12:45:10;;;;;;;6.40;5.00;;;;;;;27.08;48.82;98067.88;8416798;28;20211;-60
2021/09/11 12:49:15;;;;;;;5.90;4.77;;;;;;;26.77;48.13;98067.81;8417760;28;20208;-59
2021/09/11 12:53:18;;;;;;;5.13;4.63;;;;;;;26.36;48.94;98069.63;8383958;28;20213;-60
2021/09/11 12:57:21;;;;;;;4.83;4.20;;;;;;;26.17;48.99;98065.47;8384066;28;20209;-59
2021/09/11 13:01:24;;;;;;;4.13;3.77;;;;;;;25.87;48.85;98067.72;8383796;28;20236;-60
2021/09/11 13:05:29;;;;;;;4.60;4.20;;;;;;;25.61;49.56;98059.84;8383474;28;20255;-59
2021/09/11 13:09:32;;;;;;;5.27;4.30;;;;;;;26.39;48.36;98061.31;8383566;28;20520;-59
2021/09/11 13:13:35;;;;;;;5.53;4.77;;;;;;;25.68;49.18;98059.06;8383566;28;20202;-59
2021/09/11 13:17:38;;;;;;;10.40;4.60;;;;;;;25.53;49.99;98073.91;8383456;28;20200;-59
2021/09/11 13:21:43;;;;;;;8.20;5.23;;;;;;;25.30;50.63;98065.72;8383115;28;20232;-60
2021/09/11 13:25:46;;;;;;;6.90;6.30;;;;;;;24.97;51.63;98068.16;8406772;28;20198;-60
2021/09/11 13:29:49;;;;;;;7.17;6.40;;;;;;;24.80;52.96;98071.72;8416546;28;20202;-59
2021/09/11 13:33:53;;;;;;;11.27;5.37;;;;;;;24.90;52.44;98067.97;8416089;28;20549;-68
2021/09/11 13:37:58;;;;;;;5.37;4.87;;;;;;;25.46;50.75;98068.44;8416321;28;20205;-68
2021/09/11 13:42:01;;;;;;;5.80;5.30;;;;;;;26.20;49.48;98060.66;8415984;28;20282;-70
2021/09/11 13:46:05;;;;;;;4.10;3.70;;;;;;;26.97;46.40;98054.97;8415904;28;20215;-67
2021/09/11 13:50:09;;;;;;;3.63;3.33;;;;;;;26.79;46.75;98057.84;8415573;28;20265;-71
2021/09/11 13:54:31;;;;;;;3.53;3.23;;;;;;;27.55;45.53;98049.44;8416024;28;20227;-71
2021/09/11 13:58:36;;;;;;;5.70;4.17;;;;;;;27.82;45.02;98054.28;8420988;28;20493;-71
2021/09/11 14:02:39;;;;;;;5.23;4.57;;;;;;;27.79;44.09;98048.50;8422579;28;20229;-71
2021/09/11 14:06:42;;;;;;;5.37;4.87;;;;;;;27.86;43.87;98044.97;8422113;28;20261;-71
2021/09/11 14:10:47;;;;;;;4.87;4.30;;;;;;;27.06;44.69;98038.00;8422413;28;20199;-71
2021/09/11 14:14:50;;;;;;;5.00;4.50;;;;;;;27.53;44.73;98047.00;8422346;28;20209;-71
2021/09/11 14:18:55;;;;;;;5.00;4.60;;;;;;;27.18;46.52;98043.78;8422298;28;20271;-71
2021/09/11 14:22:58;;;;;;;4.27;3.87;;;;;;;27.67;44.18;98045.41;8422013;28;20233;-71
2021/09/11 14:27:03;;;;;;;4.07;3.67;;;;;;;27.99;43.85;98035.59;8422036;28;20206;-71
2021/09/11 14:31:07;;;;;;;3.60;3.30;;;;;;;27.79;44.64;98035.19;8421930;28;20391;-71
2021/09/11 14:35:10;;;;;;;3.50;3.03;;;;;;;27.94;42.98;98045.94;8421664;28;20449;-71
2021/09/11 14:39:13;;;;;;;4.27;3.60;;;;;;;27.92;44.06;98043.44;8421494;28;20200;-71
2021/09/11 14:43:17;;;;;;;4.97;3.23;;;;;;;27.35;44.99;98038.44;8421343;28;20230;-71
2021/09/11 14:47:20;;;;;;;4.10;3.60;;;;;;;27.72;43.36;98043.06;8421302;28;20206;-72
2021/09/11 14:51:23;;;;;;;4.53;3.70;;;;;;;27.75;44.05;98031.22;8421036;28;20487;-71
2021/09/11 14:55:26;;;;;;;5.37;3.97;;;;;;;27.43;44.28;98039.19;8421013;28;20202;-71
2021/09/11 14:59:31;;;;;;;4.00;3.10;;;;;;;27.45;43.29;98033.72;8420934;28;20203;-71
2021/09/11 15:03:35;;;;;;;4.50;2.90;;;;;;;27.24;43.24;98031.63;8420704;28;20231;-71
2021/09/11 15:07:38;;;;;;;4.27;2.93;;;;;;;27.25;43.35;98026.16;8420029;28;20235;-71
2021/09/11 15:11:42;;;;;;;4.87;3.23;;;;;;;27.25;44.18;98017.38;8420594;28;20499;-71
2021/09/11 15:15:47;;;;;;;2.77;2.00;;;;;;;27.11;43.29;98019.72;8420694;28;20496;-70
2021/09/11 15:19:50;;;;;;;2.57;2.10;;;;;;;26.94;42.51;98017.28;8420495;28;20397;-70
2021/09/11 15:23:53;;;;;;;4.07;2.20;;;;;;;27.11;41.96;98021.53;8420381;28;20523;-71
2021/09/11 15:27:55;;;;;;;2.57;2.37;;;;;;;27.00;42.86;98029.91;8420058;28;20540;-71
2021/09/11 15:32:02;;;;;;;4.87;2.63;;;;;;;26.95;43.50;98018.94;8419881;28;20280;-71
2021/09/11 15:36:05;;;;;;;3.10;2.10;;;;;;;26.97;43.35;98020.41;8419554;28;20420;-71
2021/09/11 15:40:11;;;;;;;4.63;2.43;;;;;;;26.98;43.30;98022.09;8420096;28;20199;-71
2021/09/11 15:44:18;;;;;;;4.07;2.30;;;;;;;26.83;43.13;98026.47;8419691;28;20238;-68
2021/09/11 15:48:22;;;;;;;5.87;2.20;;;;;;;26.44;43.58;98027.16;8419315;28;20199;-62
2021/09/11 15:52:25;;;;;;;2.57;2.30;;;;;;;26.45;44.20;98019.00;8418987;28;20384;-61
2021/09/11 15:56:28;;;;;;;4.40;2.40;;;;;;;26.32;44.41;98027.47;8419350;28;20207;-61
2021/09/11 16:00:31;;;;;;;3.33;2.10;;;;;;;26.32;45.08;98019.50;8419106;28;20213;-61
2021/09/11 16:04:36;;;;;;;3.60;2.33;;;;;;;26.25;45.18;98023.81;8418634;28;20226;-61
2021/09/11 16:08:39;;;;;;;5.40;1.97;;;;;;;26.11;45.27;98016.53;8418885;28;20206;-61
2021/09/11 16:12:42;;;;;;;2.30;2.10;;;;;;;25.99;46.36;98023.16;8418646;28;20413;-61
2021/09/11 16:16:45;;;;;;;3.27;1.80;;;;;;;25.80;44.61;98017.16;8418553;28;20217;-61
2021/09/11 16:20:49;;;;;;;1.73;1.50;;;;;;;25.64;44.14;98015.28;8417157;28;20201;-61
2021/09/11 16:24:52;;;;;;;1.63;1.20;;;;;;;25.62;44.43;98019.91;8418185;28;20423;-61
2021/09/11 16:28:55;;;;;;;1.53;1.40;;;;;;;25.52;45.53;98021.91;8418174;28;20205;-61
2021/09/11 16:32:58;;;;;;;3.03;1.50;;;;;;;25.48;46.11;98021.38;8418008;28;20384;-61
2021/09/11 16:37:02;;;;;;;2.20;1.60;;;;;;;25.40;46.72;98017.88;8417806;28;20405;-61
2021/09/11 16:41:07;;;;;;;1.73;1.50;;;;;;;25.24;46.54;98008.88;8417718;28;20207;-61
2021/09/11 16:45:11;;;;;;;2.00;1.73;;;;;;;25.24;47.08;98011.53;8417489;28;20229;-61
2021/09/11 16:49:14;;;;;;;2.27;2.07;;;;;;;25.18;47.91;98012.97;8417186;28;20203;-62
2021/09/11 16:53:18;;;;;;;2.83;1.50;;;;;;;25.01;47.11;98005.94;8417363;28;20401;-61
2021/09/11 16:57:21;;;;;;;1.60;1.50;;;;;;;24.95;47.45;98009.22;8417281;28;20208;-61
2021/09/11 17:01:24;;;;;;;2.50;2.07;;;;;;;24.92;47.91;98015.69;8416855;28;20202;-66
2021/09/11 17:05:28;;;;;;;11.80;3.40;;;;;;;24.88;50.10;98011.66;8422001;28;20533;-61
2021/09/11 17:09:32;;;;;;;4.50;3.77;;;;;;;24.85;49.84;98012.00;8423160;28;20204;-61
2021/09/11 17:13:35;;;;;;;5.17;3.60;;;;;;;24.77;50.51;98019.91;8416605;28;20197;-61
2021/09/11 17:17:38;;;;;;;4.87;3.70;;;;;;;24.65;52.06;98018.50;8416677;28;20221;-61
2021/09/11 17:21:41;;;;;;;6.43;4.60;;;;;;;24.63;51.26;98020.47;8420708;28;20198;-61
2021/09/11 17:25:47;;;;;;;6.40;3.30;;;;;;;24.56;52.36;98017.59;8439102;28;20209;-61
2021/09/11 17:29:50;;;;;;;3.87;2.57;;;;;;;24.49;52.03;98016.53;8416202;28;20232;-61
2021/09/11 17:33:56;;;;;;;4.23;2.30;;;;;;;24.42;51.31;98026.91;8416008;28;20225;-61
2021/09/11 17:38:01;;;;;;;5.73;2.40;;;;;;;24.34;52.49;98024.19;8416034;28;20199;-61
2021/09/11 17:42:06;;;;;;;3.30;2.37;;;;;;;24.27;52.98;98021.31;8415962;28;20222;-61
2021/09/11 17:46:10;;;;;;;5.83;2.50;;;;;;;24.17;52.68;98026.72;8416109;28;20199;-61
2021/09/11 17:50:13;;;;;;;3.90;2.30;;;;;;;24.05;53.32;98025.28;8415807;28;20208;-61
2021/09/11 17:54:16;;;;;;;7.70;5.70;;;;;;;23.97;53.31;98033.13;8415865;28;20227;-61
2021/09/11 17:58:20;;;;;;;6.03;4.40;;;;;;;23.94;53.49;98042.22;8415818;28;20206;-61
2021/09/11 18:02:23;;;;;;;10.50;7.20;;;;;;;23.90;54.23;98035.56;8415782;28;20415;-61
2021/09/11 18:06:26;;;;;;;5.57;4.27;;;;;;;23.86;53.81;98030.75;8415482;28;20311;-61
2021/09/11 18:10:30;;;;;;;7.03;3.97;;;;;;;23.80;54.31;98040.94;8415727;28;20203;-61
2021/09/11 18:14:34;;;;;;;4.87;3.80;;;;;;;23.72;54.88;98046.13;8433232;28;20204;-61
2021/09/11 18:18:37;;;;;;;4.33;3.10;;;;;;;23.62;55.23;98062.00;8450950;28;20248;-62
2021/09/11 18:22:40;;;;;;;4.03;2.63;;;;;;;23.52;55.51;98060.44;8448888;28;20218;-62
2021/09/11 18:26:43;;;;;;;3.20;2.70;;;;;;;23.51;55.76;98062.22;8448988;28;20199;-60
2021/09/11 18:30:48;;;;;;;4.17;3.00;;;;;;;23.36;55.88;98079.53;8448946;28;20198;-60
2021/09/11 18:34:50;;;;;;;8.37;3.13;;;;;;;23.34;55.94;98086.78;8448706;28;20231;-59
2021/09/11 18:38:53;;;;;;;40.60;3.73;;;;;;;23.29;55.94;98089.88;8448745;28;20370;-60
2021/09/11 18:42:56;;;;;;;6.07;2.73;;;;;;;23.22;56.11;98096.72;8448950;28;20407;-60
2021/09/11 18:47:01;;;;;;;4.60;2.70;;;;;;;23.18;56.30;98096.16;8454042;28;20201;-60
2021/09/11 18:51:03;;;;;;;3.50;2.43;;;;;;;23.07;56.01;98096.34;8439125;28;20199;-59
2021/09/11 18:55:07;;;;;;;4.40;2.30;;;;;;;23.05;55.67;98100.09;8421078;28;20498;-59
2021/09/11 18:59:10;;;;;;;6.57;2.73;;;;;;;22.89;56.70;98111.25;8420980;28;20209;-60
2021/09/11 19:03:14;;;;;;;6.47;2.70;;;;;;;22.83;56.28;98100.28;8420759;28;20231;-60